Тейково-4

Карта отелей и гостиниц, располагающихся рядом с аэропортом Тейково-4 :

Тейково-4 Ивановская область 56° 56' 53.7288" N, 40° 8' 36.2508" E
Код аэродрома ИКАО
HH2Z
Код аэродрома RU
ХХ2З
Координаты
N56.94826° E040.14340°
Превышение над уровнем моря
149
Основная полоса
Курс магнитный
Длина основной ВПП
Ширина основной ВПП
Покрытие основной ВПП
Освещение ВПП
Тип: 
Вертодром
Класс аэродрома: 
Принадлежность: 
МО
Статус: 
Недействующий
Сайт: 
E-mail аэродрома: 
Страна: 
Россия
Регион: 
Ивановская область
Город: 
Дополнительная информация: 
Оператор: 54-я Гв. РД РВСН.

Найти трансфер

С помощью этой формы Вы можете найти трансфер из аэропорта Тейково-4 в город, аэропорт или вокзал:

Погода в аэропортах:

Авиационная погода в Москва - Шереметьево

Погода METAR: 
UUEE 221800Z 07004MPS 9000 4000NE -SN OVC008 M04/M06 Q1011 R06R/590530 R06C/590526 R06L/590530 NOSIG
Время наблюдения
2022-01-22T18:00:00Z
Температура C
-4.0
Точка росы
-6.0
Направление ветра
70
Скорость ветра (узлы)
8
Метео видимость
5.59
Облачность
OVC
Нижняя граница облачности (футы)
800
Явления погоды
-SN
Условия полета
IFR
Аэропорт подробнее: 
OVC – сплошная облачность;
-SN – слабый снег;

Авиационная погода в Зонгулдаке

Регион: 
Погода METAR: 
LTAS 221150Z 11001KT 2200 -SHRASN BR SCT003 BKN025 BKN080 02/01 Q1014
Время наблюдения
2022-01-22T11:50:00Z
Температура C
2.0
Точка росы
1.0
Направление ветра
110
Скорость ветра (узлы)
1
Метео видимость
1.37
Облачность
SCT
BKN
BKN
Нижняя граница облачности (футы)
300
2500
8000
Явления погоды
-SHRA -SHSN BR
Условия полета
IFR
SCT – разбросанная отдельная облачность; BKN – значительная (рассеянная, разорванная) облачность;
-SHRA - слабый ливневой дождь; -SHSN - слабый ливневой снег; BR – дымка (видимость от 1 до 9 км);

Авиационная погода в Атырау

Регион: 
Погода METAR: 
UATG 221800Z 11005MPS 5000 BR SCT007 M10/M12 Q1024 NOSIG RMK QFE770/1027
Время наблюдения
2022-01-22T18:00:00Z
Температура C
-10.0
Точка росы
-12.0
Направление ветра
110
Скорость ветра (узлы)
10
Метео видимость
3.11
Облачность
SCT
Нижняя граница облачности (футы)
700
Явления погоды
BR
Условия полета
MVFR
SCT – разбросанная отдельная облачность;
BR – дымка (видимость от 1 до 9 км);

Авиационная погода в Екатеринбурге

Регион: 
Погода METAR: 
USSS 221800Z 00000MPS 2800 0050W PRFG SCT002 M21/M23 Q1030 R26L/310050 R26R/310050 NOSIG RMK QFE751/1002
Время наблюдения
2022-01-22T18:00:00Z
Температура C
-21.0
Точка росы
-23.0
Направление ветра
0
Скорость ветра (узлы)
0
Метео видимость
1.74
Облачность
SCT
Нижняя граница облачности (футы)
200
Явления погоды
PRFG
Условия полета
IFR
Аэропорт подробнее: 
SCT – разбросанная отдельная облачность;
PRFG - туман просвечивающий;